createdAt,value
2023-05-25T00:01:49.300Z,99.90
2023-05-25T00:04:17.519Z,99.90
2023-05-25T00:06:45.461Z,99.90
2023-05-25T00:09:14.558Z,99.90
2023-05-25T00:11:41.428Z,99.90
2023-05-25T00:14:08.549Z,99.90
2023-05-25T00:16:37.638Z,99.90
2023-05-25T00:19:13.051Z,99.90
2023-05-25T00:21:42.496Z,99.90
2023-05-25T00:24:11.769Z,99.90
2023-05-25T00:26:43.525Z,99.90
2023-05-25T00:29:11.002Z,99.90
2023-05-25T00:31:39.930Z,99.90
2023-05-25T00:34:06.906Z,99.90
2023-05-25T00:36:36.087Z,99.90
2023-05-25T00:39:05.879Z,99.90
2023-05-25T00:41:33.318Z,99.90
2023-05-25T00:44:00.156Z,99.90
2023-05-25T00:46:27.174Z,99.90
2023-05-25T00:48:56.568Z,99.90
2023-05-25T00:51:23.554Z,99.90
2023-05-25T00:53:50.501Z,99.90
2023-05-25T00:56:26.231Z,99.90
2023-05-25T00:58:54.485Z,99.90
2023-05-25T01:01:22.374Z,99.90
2023-05-25T01:03:54.874Z,99.90
2023-05-25T01:06:22.669Z,99.90
2023-05-25T01:08:51.814Z,99.90
2023-05-25T01:11:21.746Z,99.90
2023-05-25T01:13:52.453Z,99.90
2023-05-25T01:16:22.403Z,99.90
2023-05-25T01:18:52.563Z,99.90
2023-05-25T01:21:20.218Z,99.90
2023-05-25T01:23:50.369Z,99.90
2023-05-25T01:26:20.078Z,99.90
2023-05-25T01:28:50.288Z,99.90
2023-05-25T01:31:20.865Z,99.90
2023-05-25T01:33:49.706Z,99.90
2023-05-25T01:36:19.552Z,99.90
2023-05-25T01:38:46.388Z,99.90
2023-05-25T01:41:17.849Z,99.90
2023-05-25T01:43:47.153Z,99.90
2023-05-25T01:46:13.981Z,99.90
2023-05-25T01:48:47.626Z,99.90
2023-05-25T01:51:21.465Z,99.90
2023-05-25T01:53:56.303Z,99.90
2023-05-25T01:56:24.391Z,99.90
2023-05-25T01:58:54.045Z,99.90
2023-05-25T02:01:22.122Z,99.90
2023-05-25T02:03:49.248Z,99.90
2023-05-25T02:06:16.576Z,99.90
2023-05-25T02:08:46.263Z,99.90
2023-05-25T02:11:14.398Z,99.90
2023-05-25T02:13:43.663Z,99.90
2023-05-25T02:16:13.035Z,99.90
2023-05-25T02:18:44.897Z,99.90
2023-05-25T02:21:12.353Z,99.90
2023-05-25T02:23:39.308Z,99.90
2023-05-25T02:26:06.460Z,99.90
2023-05-25T02:28:34.106Z,99.90
2023-05-25T02:31:03.250Z,99.90
2023-05-25T02:33:32.394Z,99.90
2023-05-25T02:35:59.149Z,99.90
2023-05-25T02:38:29.252Z,99.90
2023-05-25T02:40:58.710Z,99.90
2023-05-25T02:43:27.943Z,99.90
2023-05-25T02:45:54.740Z,99.90
2023-05-25T02:48:22.098Z,99.90
2023-05-25T02:50:51.484Z,99.90
2023-05-25T02:53:18.354Z,99.90
2023-05-25T02:55:48.053Z,99.90
2023-05-25T02:58:21.132Z,99.90
2023-05-25T03:01:10.415Z,99.90
2023-05-25T03:03:42.773Z,99.90
2023-05-25T03:06:09.633Z,99.90
2023-05-25T03:08:36.507Z,99.90
2023-05-25T03:11:03.385Z,99.90
2023-05-25T03:13:32.946Z,99.90
2023-05-25T03:15:59.828Z,99.90
2023-05-25T03:18:27.230Z,99.90
2023-05-25T03:20:54.176Z,99.90
2023-05-25T03:23:21.545Z,99.90
2023-05-25T03:25:51.310Z,99.90
2023-05-25T03:28:18.311Z,99.90
2023-05-25T03:30:50.692Z,99.90
2023-05-25T03:33:17.980Z,99.90
2023-05-25T03:35:47.956Z,99.90
2023-05-25T03:38:15.379Z,99.90
2023-05-25T03:40:43.011Z,99.90
2023-05-25T03:43:09.951Z,99.90
2023-05-25T03:45:39.611Z,99.90
2023-05-25T03:48:06.955Z,99.90
2023-05-25T03:50:34.445Z,99.90
2023-05-25T03:53:01.350Z,99.90
2023-05-25T03:55:28.404Z,99.90
2023-05-25T03:57:55.348Z,99.90
2023-05-25T04:00:22.182Z,99.90
2023-05-25T04:02:52.152Z,99.90
2023-05-25T04:05:21.154Z,99.90
2023-05-25T04:07:50.367Z,99.90
2023-05-25T04:10:19.604Z,99.90
2023-05-25T04:12:46.619Z,99.90
2023-05-25T04:15:15.927Z,99.90
2023-05-25T04:18:09.220Z,99.90
2023-05-25T04:20:38.584Z,99.90
2023-05-25T04:23:09.191Z,99.90
2023-05-25T04:25:42.290Z,99.90
2023-05-25T04:28:09.455Z,99.90
2023-05-25T04:31:05.419Z,99.90
2023-05-25T04:33:44.866Z,99.90
2023-05-25T04:36:18.124Z,99.90
2023-05-25T04:38:47.932Z,99.90
2023-05-25T04:41:15.419Z,99.90
2023-05-25T04:44:03.603Z,99.90
2023-05-25T04:46:37.156Z,99.90
2023-05-25T04:49:05.520Z,99.90
2023-05-25T04:51:32.560Z,99.90
2023-05-25T04:53:59.821Z,99.90
2023-05-25T04:56:31.709Z,99.90
2023-05-25T04:59:01.153Z,99.90
2023-05-25T05:01:29.220Z,99.90
2023-05-25T05:03:59.376Z,99.90
2023-05-25T05:06:27.059Z,99.90
2023-05-25T05:08:55.030Z,99.90
2023-05-25T05:11:23.584Z,99.90
2023-05-25T05:13:50.895Z,99.90
2023-05-25T05:16:17.754Z,99.90
2023-05-25T05:18:44.545Z,99.90
2023-05-25T05:21:11.485Z,99.90
2023-05-25T05:23:39.096Z,99.90
2023-05-25T05:26:07.261Z,99.90
2023-05-25T05:28:34.461Z,99.90
2023-05-25T05:31:01.485Z,99.90
2023-05-25T05:33:28.565Z,99.90
2023-05-25T05:35:55.925Z,99.90
2023-05-25T05:38:23.990Z,99.90
2023-05-25T05:40:50.918Z,99.90
2023-05-25T05:43:22.772Z,99.90
2023-05-25T05:45:49.759Z,99.90
2023-05-25T05:48:18.951Z,99.90
2023-05-25T05:50:48.513Z,99.90
2023-05-25T05:53:18.006Z,99.90
2023-05-25T05:55:45.951Z,99.90
2023-05-25T05:58:16.931Z,99.90
2023-05-25T06:00:43.859Z,99.90
2023-05-25T06:03:17.894Z,99.90
2023-05-25T06:05:47.393Z,99.90
2023-05-25T06:08:15.060Z,99.90
2023-05-25T06:10:42.508Z,99.90
2023-05-25T06:13:09.389Z,99.90
2023-05-25T06:15:36.691Z,99.90
2023-05-25T06:18:09.320Z,99.90
2023-05-25T06:20:38.160Z,99.90
2023-05-25T06:23:09.187Z,99.90
2023-05-25T06:25:36.430Z,99.90
2023-05-25T06:28:06.180Z,99.90
2023-05-25T06:30:35.544Z,99.90
2023-05-25T06:33:08.699Z,99.90
2023-05-25T06:35:36.374Z,99.90
2023-05-25T06:38:07.975Z,99.90
2023-05-25T06:40:34.983Z,99.90
2023-05-25T06:43:06.089Z,99.90
2023-05-25T06:46:02.327Z,99.90
2023-05-25T06:48:31.072Z,99.90
2023-05-25T06:51:02.580Z,99.90
2023-05-25T06:53:32.036Z,99.90
2023-05-25T06:55:58.957Z,99.90
2023-05-25T06:58:25.873Z,99.90
2023-05-25T07:00:55.067Z,99.90
2023-05-25T07:03:24.102Z,99.90
2023-05-25T07:05:53.535Z,99.90
2023-05-25T07:08:20.575Z,99.90
2023-05-25T07:10:49.853Z,99.90
2023-05-25T07:13:17.350Z,99.90
2023-05-25T07:15:44.770Z,99.90
2023-05-25T07:18:12.697Z,99.90
2023-05-25T07:20:44.031Z,99.90
2023-05-25T07:23:15.923Z,99.90
2023-05-25T07:25:43.228Z,99.90
2023-05-25T07:28:12.620Z,99.90
2023-05-25T07:30:40.795Z,99.90
2023-05-25T07:33:10.068Z,99.90
2023-05-25T07:35:39.558Z,99.90
2023-05-25T07:38:09.037Z,99.90
2023-05-25T07:40:36.001Z,99.90
2023-05-25T07:43:02.916Z,99.90
2023-05-25T07:45:30.031Z,99.90
2023-05-25T07:47:57.017Z,99.90
2023-05-25T07:50:24.020Z,99.90
2023-05-25T07:52:53.601Z,99.90
2023-05-25T07:55:22.933Z,99.90
2023-05-25T07:57:49.881Z,99.90
2023-05-25T08:00:18.025Z,99.90
2023-05-25T08:02:45.193Z,99.90
2023-05-25T08:05:12.738Z,99.90
2023-05-25T08:07:40.742Z,99.90
2023-05-25T08:10:10.065Z,99.90
2023-05-25T08:12:47.627Z,99.90
2023-05-25T08:15:16.828Z,99.90
2023-05-25T08:17:44.339Z,99.90
2023-05-25T08:20:12.067Z,99.90
2023-05-25T08:22:39.000Z,99.90
2023-05-25T08:25:08.811Z,99.90
2023-05-25T08:27:37.990Z,99.90
2023-05-25T08:30:08.212Z,99.90
2023-05-25T08:32:35.382Z,99.90
2023-05-25T08:35:03.366Z,99.90
2023-05-25T08:37:32.297Z,99.90
2023-05-25T08:40:00.979Z,99.90
2023-05-25T08:42:31.031Z,99.90
2023-05-25T08:45:00.315Z,99.90
2023-05-25T08:47:31.180Z,99.90
2023-05-25T08:50:00.120Z,99.90
2023-05-25T08:52:33.148Z,99.90
2023-05-25T08:55:06.558Z,99.90
2023-05-25T08:57:55.619Z,99.90
2023-05-25T09:00:32.035Z,99.90
2023-05-25T09:03:18.069Z,99.90
2023-05-25T09:05:47.824Z,99.90
2023-05-25T09:08:19.912Z,99.90
2023-05-25T09:10:48.091Z,99.90
2023-05-25T09:13:22.124Z,99.90
2023-05-25T09:15:53.174Z,99.80
2023-05-25T09:18:22.988Z,99.90
2023-05-25T09:20:50.574Z,98.60
2023-05-25T09:23:19.766Z,97.50
2023-05-25T09:25:51.015Z,94.10
2023-05-25T09:28:27.222Z,94.50
2023-05-25T09:30:54.947Z,93.40
2023-05-25T09:33:22.210Z,91.50
2023-05-25T09:35:49.353Z,91.90
2023-05-25T09:38:19.325Z,92.30
2023-05-25T09:40:46.594Z,92.80
2023-05-25T09:43:28.409Z,93.60
2023-05-25T09:48:33.039Z,97.00
2023-05-25T09:51:01.627Z,98.40
2023-05-25T09:53:29.226Z,98.10
2023-05-25T09:56:01.169Z,99.20
2023-05-25T09:58:28.917Z,99.60
2023-05-25T10:00:58.300Z,99.70
2023-05-25T10:03:25.660Z,99.00
2023-05-25T10:05:53.935Z,98.70
2023-05-25T10:08:27.831Z,99.20
2023-05-25T10:10:58.420Z,99.50
2023-05-25T10:13:30.321Z,99.90
2023-05-25T10:15:58.009Z,99.90
2023-05-25T10:18:32.747Z,99.90
2023-05-25T10:21:05.192Z,99.90
2023-05-25T10:23:44.552Z,99.90
2023-05-25T10:26:18.343Z,99.90
2023-05-25T10:28:50.774Z,99.90
2023-05-25T10:31:18.787Z,99.90
2023-05-25T10:33:52.509Z,99.90
2023-05-25T10:36:21.333Z,99.90
2023-05-25T10:38:54.005Z,99.90
2023-05-25T10:41:21.631Z,99.90
2023-05-25T10:43:53.369Z,99.90
2023-05-25T10:46:22.070Z,99.90
2023-05-25T10:48:51.717Z,99.90
2023-05-25T10:51:22.241Z,99.90
2023-05-25T10:54:02.818Z,99.90
2023-05-25T10:56:29.828Z,99.90
2023-05-25T10:58:57.041Z,99.90
2023-05-25T11:01:24.822Z,99.90
2023-05-25T11:03:57.439Z,99.90
2023-05-25T11:06:44.677Z,99.90
2023-05-25T11:09:26.080Z,99.90
2023-05-25T11:11:55.417Z,99.90
2023-05-25T11:14:23.755Z,99.90
2023-05-25T11:17:18.212Z,99.90
2023-05-25T11:19:54.197Z,99.90
2023-05-25T11:22:21.305Z,99.90
2023-05-25T11:24:49.655Z,99.90
2023-05-25T11:27:24.892Z,99.90
2023-05-25T11:29:52.872Z,99.90
2023-05-25T11:32:21.226Z,99.90
2023-05-25T11:34:48.860Z,99.90
2023-05-25T11:37:25.627Z,99.90
2023-05-25T11:39:53.571Z,99.90
2023-05-25T11:42:23.174Z,99.90
2023-05-25T11:44:51.236Z,99.90
2023-05-25T11:47:22.998Z,99.90
2023-05-25T11:49:55.171Z,99.90
2023-05-25T11:52:22.907Z,99.90
2023-05-25T11:54:49.770Z,99.90
2023-05-25T11:57:22.619Z,99.90
2023-05-25T11:59:57.642Z,99.90
2023-05-25T12:02:25.024Z,99.90
2023-05-25T12:04:57.003Z,99.90
2023-05-25T12:07:31.570Z,99.90
2023-05-25T12:10:10.670Z,99.90
2023-05-25T12:12:47.409Z,99.90
2023-05-25T12:15:23.270Z,99.90
2023-05-25T12:17:54.233Z,99.90
2023-05-25T12:20:21.857Z,99.90
2023-05-25T12:22:51.068Z,99.90
2023-05-25T12:25:22.520Z,99.90
2023-05-25T12:27:49.733Z,99.90
2023-05-25T12:30:16.823Z,99.90
2023-05-25T12:33:16.336Z,99.90
2023-05-25T12:35:50.469Z,99.90
2023-05-25T12:38:19.249Z,99.90
2023-05-25T12:41:07.945Z,99.90
2023-05-25T12:43:43.144Z,99.90
2023-05-25T12:46:10.323Z,99.90
2023-05-25T12:48:39.839Z,99.90
2023-05-25T12:51:06.710Z,99.90
2023-05-25T12:53:50.365Z,99.90
2023-05-25T12:56:17.342Z,99.90
2023-05-25T12:58:45.282Z,99.90
2023-05-25T13:01:12.293Z,99.90
2023-05-25T13:03:39.631Z,99.90
2023-05-25T13:06:07.000Z,99.90
2023-05-25T13:08:36.116Z,99.90
2023-05-25T13:11:03.704Z,99.90
2023-05-25T13:13:30.693Z,99.90
2023-05-25T13:15:58.381Z,99.90
2023-05-25T13:18:25.380Z,99.90
2023-05-25T13:20:55.078Z,99.90
2023-05-25T13:23:27.529Z,99.90
2023-05-25T13:25:54.528Z,99.90
2023-05-25T13:28:21.402Z,99.90
2023-05-25T13:30:50.607Z,99.90
2023-05-25T13:33:17.607Z,99.90
2023-05-25T13:35:58.609Z,99.90
2023-05-25T13:38:26.357Z,99.90
2023-05-25T13:40:55.445Z,99.90
2023-05-25T13:43:22.690Z,99.90
2023-05-25T13:45:52.138Z,99.90
2023-05-25T13:48:21.361Z,99.90
2023-05-25T13:50:49.309Z,99.90
2023-05-25T13:53:16.558Z,99.90
2023-05-25T13:55:43.881Z,99.90
2023-05-25T13:58:10.824Z,99.90
2023-05-25T14:00:37.775Z,99.90
2023-05-25T14:03:07.185Z,99.90
2023-05-25T14:05:34.239Z,99.90
2023-05-25T14:08:02.671Z,99.90
2023-05-25T14:10:29.555Z,99.90
2023-05-25T14:12:56.436Z,99.90
2023-05-25T14:15:23.501Z,99.90
2023-05-25T14:17:57.290Z,99.90
2023-05-25T14:20:26.829Z,99.90
2023-05-25T14:22:56.251Z,98.10
2023-05-25T14:25:28.423Z,98.50
2023-05-25T14:27:55.920Z,99.90
2023-05-25T14:30:22.782Z,99.90
2023-05-25T14:32:50.036Z,99.90
2023-05-25T14:35:17.309Z,99.90
2023-05-25T14:37:46.830Z,99.90
2023-05-25T14:40:13.767Z,99.90
2023-05-25T14:42:42.853Z,99.90
2023-05-25T14:45:12.067Z,99.90
2023-05-25T14:47:42.877Z,99.90
2023-05-25T14:50:10.011Z,99.90
2023-05-25T14:52:39.390Z,99.90
2023-05-25T14:55:06.857Z,96.80
2023-05-25T14:57:33.727Z,96.00
2023-05-25T15:00:01.233Z,95.10
2023-05-25T15:02:30.544Z,95.70
2023-05-25T15:05:00.144Z,98.10
2023-05-25T15:07:27.167Z,98.80
2023-05-25T15:09:54.214Z,99.50
2023-05-25T15:12:21.201Z,99.90
2023-05-25T15:14:50.830Z,99.90
2023-05-25T15:17:20.263Z,99.90
2023-05-25T15:19:49.489Z,99.90
2023-05-25T15:22:18.493Z,99.90
2023-05-25T15:24:52.846Z,99.90
2023-05-25T15:27:19.942Z,99.90
2023-05-25T15:29:48.955Z,99.90
2023-05-25T15:32:17.821Z,99.90
2023-05-25T15:34:46.065Z,99.90
2023-05-25T15:37:13.153Z,99.90
2023-05-25T15:39:40.332Z,99.90
2023-05-25T15:42:07.489Z,99.90
2023-05-25T15:44:34.376Z,99.90
2023-05-25T15:47:01.287Z,99.90
2023-05-25T15:49:28.243Z,99.90
2023-05-25T15:51:55.253Z,99.90
2023-05-25T15:54:22.152Z,99.90
2023-05-25T15:56:49.085Z,99.90
2023-05-25T15:59:16.043Z,99.90
2023-05-25T16:01:43.131Z,99.90
2023-05-25T16:04:10.258Z,99.90
2023-05-25T16:06:39.450Z,99.90
2023-05-25T16:09:06.585Z,99.90
2023-05-25T16:11:35.929Z,99.90
2023-05-25T16:14:02.877Z,99.90
2023-05-25T16:16:34.686Z,99.90
2023-05-25T16:19:04.236Z,99.90
2023-05-25T16:21:31.222Z,99.90
2023-05-25T16:23:58.220Z,99.90
2023-05-25T16:26:25.104Z,99.90
2023-05-25T16:28:52.205Z,99.90
2023-05-25T16:31:22.049Z,99.90
2023-05-25T16:33:49.090Z,99.90
2023-05-25T16:36:18.258Z,99.90
2023-05-25T16:38:45.928Z,99.90
2023-05-25T16:41:17.619Z,99.90
2023-05-25T16:43:44.614Z,99.90
2023-05-25T16:46:11.718Z,99.90
2023-05-25T16:48:40.995Z,99.90
2023-05-25T16:51:07.870Z,99.90
2023-05-25T16:53:34.893Z,99.90
2023-05-25T16:56:01.930Z,99.90
2023-05-25T16:58:28.828Z,99.90
2023-05-25T17:00:55.774Z,99.90
2023-05-25T17:03:23.066Z,99.90
2023-05-25T17:05:51.912Z,99.90
2023-05-25T17:08:20.074Z,99.90
2023-05-25T17:10:48.250Z,99.90
2023-05-25T17:13:15.607Z,99.90
2023-05-25T17:15:45.427Z,99.90
2023-05-25T17:18:12.703Z,99.90
2023-05-25T17:20:39.715Z,99.90
2023-05-25T17:23:12.025Z,99.90
2023-05-25T17:25:39.399Z,99.90
2023-05-25T17:28:06.358Z,99.90
2023-05-25T17:30:33.372Z,99.90
2023-05-25T17:33:01.810Z,99.90
2023-05-25T17:35:54.041Z,99.90
2023-05-25T17:38:23.022Z,99.90
2023-05-25T17:40:50.338Z,99.90
2023-05-25T17:43:17.319Z,99.90
2023-05-25T17:45:44.437Z,99.90
2023-05-25T17:48:11.557Z,99.90
2023-05-25T17:50:40.890Z,99.90
2023-05-25T17:53:12.786Z,99.90
2023-05-25T17:55:39.751Z,99.90
2023-05-25T17:58:07.267Z,99.90
2023-05-25T18:00:34.400Z,99.90
2023-05-25T18:03:04.595Z,99.90
2023-05-25T18:05:31.640Z,99.90
2023-05-25T18:08:04.905Z,99.90
2023-05-25T18:10:31.805Z,99.90
2023-05-25T18:13:00.994Z,99.90
2023-05-25T18:15:28.005Z,99.90
2023-05-25T18:17:57.356Z,99.90
2023-05-25T18:20:26.685Z,99.90
2023-05-25T18:22:53.721Z,99.90
2023-05-25T18:25:21.021Z,99.90
2023-05-25T18:27:48.064Z,99.90
2023-05-25T18:30:15.407Z,99.90
2023-05-25T18:32:42.413Z,99.90
2023-05-25T18:35:09.489Z,99.90
2023-05-25T18:37:39.422Z,99.90
2023-05-25T18:40:07.332Z,99.90
2023-05-25T18:42:36.564Z,99.90
2023-05-25T18:45:05.913Z,99.90
2023-05-25T18:47:32.875Z,99.90
2023-05-25T18:49:59.934Z,99.90
2023-05-25T18:52:29.267Z,99.90
2023-05-25T18:54:58.962Z,99.90
2023-05-25T18:57:28.707Z,99.90
2023-05-25T18:59:55.824Z,99.90
2023-05-25T19:02:22.742Z,99.90
2023-05-25T19:04:49.789Z,99.90
2023-05-25T19:07:16.700Z,99.90
2023-05-25T19:09:48.082Z,99.90
2023-05-25T19:12:15.488Z,99.90
2023-05-25T19:14:42.474Z,99.90
2023-05-25T19:17:09.396Z,99.90
2023-05-25T19:19:36.430Z,99.90
2023-05-25T19:22:03.410Z,99.90
2023-05-25T19:24:30.361Z,99.90
2023-05-25T19:26:57.337Z,99.90
2023-05-25T19:29:26.738Z,99.90
2023-05-25T19:31:53.683Z,99.90
2023-05-25T19:34:22.842Z,99.90
2023-05-25T19:36:59.925Z,99.90
2023-05-25T19:39:42.162Z,99.90
2023-05-25T19:42:09.364Z,99.90
2023-05-25T19:44:36.823Z,99.90
2023-05-25T19:47:03.863Z,99.90
2023-05-25T19:49:30.783Z,99.90
2023-05-25T19:51:57.747Z,99.90
2023-05-25T19:54:27.750Z,99.90
2023-05-25T19:56:54.807Z,99.90
2023-05-25T19:59:21.814Z,99.90
2023-05-25T20:01:48.766Z,99.90
2023-05-25T20:04:20.529Z,99.90
2023-05-25T20:06:47.447Z,99.90
2023-05-25T20:09:14.516Z,99.90
2023-05-25T20:11:41.653Z,99.90
2023-05-25T20:14:08.572Z,99.90
2023-05-25T20:16:40.437Z,99.90
2023-05-25T20:19:11.083Z,99.90
2023-05-25T20:21:41.181Z,99.90
2023-05-25T20:24:10.904Z,99.90
2023-05-25T20:26:37.823Z,99.90
2023-05-25T20:29:04.718Z,99.90
2023-05-25T20:31:33.736Z,99.90
2023-05-25T20:34:02.811Z,99.90
2023-05-25T20:36:33.054Z,99.90
2023-05-25T20:39:00.144Z,99.90
2023-05-25T20:41:29.587Z,99.90
2023-05-25T20:43:58.662Z,99.90
2023-05-25T20:46:28.164Z,99.90
2023-05-25T20:48:56.986Z,99.90
2023-05-25T20:51:23.925Z,99.90
2023-05-25T20:53:53.883Z,99.90
2023-05-25T20:56:21.512Z,99.90
2023-05-25T20:58:48.402Z,99.90
2023-05-25T21:01:15.770Z,99.90
2023-05-25T21:03:43.577Z,99.90
2023-05-25T21:06:10.591Z,99.90
2023-05-25T21:08:37.934Z,99.90
2023-05-25T21:11:07.131Z,99.90
2023-05-25T21:13:36.262Z,99.90
2023-05-25T21:16:05.730Z,99.90
2023-05-25T21:18:32.665Z,99.90
2023-05-25T21:20:59.671Z,99.90
2023-05-25T21:23:28.600Z,99.90
2023-05-25T21:25:57.758Z,99.90
2023-05-25T21:28:24.712Z,99.90
2023-05-25T21:30:51.670Z,99.90
2023-05-25T21:33:21.040Z,99.90
2023-05-25T21:35:47.883Z,99.90
2023-05-25T21:38:14.812Z,99.90
2023-05-25T21:40:41.696Z,99.90
2023-05-25T21:43:09.156Z,99.90
2023-05-25T21:45:36.277Z,99.90
2023-05-25T21:48:06.222Z,99.90
2023-05-25T21:50:36.597Z,99.90
2023-05-25T21:53:03.504Z,99.90
2023-05-25T21:55:30.399Z,99.90
2023-05-25T21:57:59.557Z,99.90
2023-05-25T22:00:29.026Z,99.90
2023-05-25T22:02:55.971Z,99.90
2023-05-25T22:05:25.366Z,99.90
2023-05-25T22:07:55.751Z,99.90
2023-05-25T22:10:24.979Z,99.90
2023-05-25T22:12:56.947Z,99.90
2023-05-25T22:15:27.110Z,99.90
2023-05-25T22:17:57.699Z,99.90
2023-05-25T22:20:27.083Z,99.90
2023-05-25T22:22:54.079Z,99.90
2023-05-25T22:25:20.943Z,99.90
2023-05-25T22:27:47.911Z,99.90
2023-05-25T22:30:15.007Z,99.90
2023-05-25T22:32:42.135Z,99.90
2023-05-25T22:35:11.462Z,99.90
2023-05-25T22:37:41.080Z,99.90
2023-05-25T22:40:08.529Z,99.90
2023-05-25T22:42:35.465Z,99.90
2023-05-25T22:45:02.400Z,99.90
2023-05-25T22:47:29.306Z,99.90
2023-05-25T22:49:56.278Z,99.90
2023-05-25T22:52:23.147Z,99.90
2023-05-25T22:54:50.421Z,99.90
2023-05-25T22:57:17.352Z,99.90
2023-05-25T22:59:44.214Z,99.90
2023-05-25T23:02:11.189Z,99.90
2023-05-25T23:04:38.162Z,99.90
2023-05-25T23:07:05.255Z,99.90
2023-05-25T23:09:32.152Z,99.90
2023-05-25T23:11:59.155Z,99.90
2023-05-25T23:14:26.127Z,99.90
2023-05-25T23:16:58.214Z,99.90
2023-05-25T23:19:27.690Z,99.90
2023-05-25T23:21:55.784Z,99.90
2023-05-25T23:24:22.642Z,99.90
2023-05-25T23:26:52.972Z,99.90
2023-05-25T23:29:24.626Z,99.90
2023-05-25T23:31:51.503Z,99.90
2023-05-25T23:34:18.397Z,99.90
2023-05-25T23:36:47.758Z,99.90
2023-05-25T23:39:15.299Z,99.90
2023-05-25T23:41:42.250Z,99.90
2023-05-25T23:44:09.093Z,99.90
2023-05-25T23:46:36.072Z,99.90
2023-05-25T23:49:05.588Z,99.90
2023-05-25T23:51:32.744Z,99.90
2023-05-25T23:54:01.832Z,99.90
2023-05-25T23:56:28.743Z,99.90
2023-05-25T23:58:56.765Z,99.90
